sensor_id;sensor_type;location;lat;lon;timestamp;pressure;altitude;pressure_sealevel;temperature;humidity
70302;BME280;57706;56.326;43.882;2022-07-30T00:00:36;100726.50;;;17.45;99.15
70302;BME280;57706;56.326;43.882;2022-07-30T00:03:02;100723.00;;;17.45;99.35
70302;BME280;57706;56.326;43.882;2022-07-30T00:05:28;100720.78;;;17.42;99.00
70302;BME280;57706;56.326;43.882;2022-07-30T00:07:53;100719.50;;;17.38;98.47
70302;BME280;57706;56.326;43.882;2022-07-30T00:10:19;100726.28;;;17.47;100.00
70302;BME280;57706;56.326;43.882;2022-07-30T00:12:47;100727.91;;;17.34;99.40
70302;BME280;57706;56.326;43.882;2022-07-30T00:15:13;100737.69;;;17.27;99.27
70302;BME280;57706;56.326;43.882;2022-07-30T00:17:39;100735.19;;;17.19;99.10
70302;BME280;57706;56.326;43.882;2022-07-30T00:20:05;100738.00;;;17.11;98.94
70302;BME280;57706;56.326;43.882;2022-07-30T00:22:31;100736.78;;;17.06;98.83
70302;BME280;57706;56.326;43.882;2022-07-30T00:24:57;100740.84;;;17.02;98.88
70302;BME280;57706;56.326;43.882;2022-07-30T00:27:23;100734.63;;;16.95;98.77
70302;BME280;57706;56.326;43.882;2022-07-30T00:29:49;100739.56;;;16.98;99.40
70302;BME280;57706;56.326;43.882;2022-07-30T00:32:15;100731.78;;;16.90;99.07
70302;BME280;57706;56.326;43.882;2022-07-30T00:34:41;100741.13;;;16.86;98.91
70302;BME280;57706;56.326;43.882;2022-07-30T00:37:07;100741.91;;;16.79;98.64
70302;BME280;57706;56.326;43.882;2022-07-30T00:39:33;100733.31;;;16.77;98.52
70302;BME280;57706;56.326;43.882;2022-07-30T00:42:00;100738.00;;;16.75;98.68
70302;BME280;57706;56.326;43.882;2022-07-30T00:44:28;100743.69;;;16.72;98.76
70302;BME280;57706;56.326;43.882;2022-07-30T00:46:55;100738.44;;;16.79;99.77
70302;BME280;57706;56.326;43.882;2022-07-30T00:49:21;100735.97;;;16.77;99.76
70302;BME280;57706;56.326;43.882;2022-07-30T00:51:47;100735.72;;;16.72;99.49
70302;BME280;57706;56.326;43.882;2022-07-30T00:54:13;100743.06;;;16.70;99.43
70302;BME280;57706;56.326;43.882;2022-07-30T00:56:40;100740.63;;;16.69;99.41
70302;BME280;57706;56.326;43.882;2022-07-30T00:59:07;100745.50;;;16.65;98.86
70302;BME280;57706;56.326;43.882;2022-07-30T01:01:34;100747.16;;;16.66;98.92
70302;BME280;57706;56.326;43.882;2022-07-30T01:04:00;100743.84;;;16.64;98.57
70302;BME280;57706;56.326;43.882;2022-07-30T01:06:26;100747.16;;;16.66;99.23
70302;BME280;57706;56.326;43.882;2022-07-30T01:08:52;100740.56;;;16.62;98.46
70302;BME280;57706;56.326;43.882;2022-07-30T01:11:20;100743.00;;;16.57;98.15
70302;BME280;57706;56.326;43.882;2022-07-30T01:13:47;100737.69;;;16.57;98.34
70302;BME280;57706;56.326;43.882;2022-07-30T01:16:13;100740.34;;;16.57;98.44
70302;BME280;57706;56.326;43.882;2022-07-30T01:18:41;100741.34;;;16.56;98.32
70302;BME280;57706;56.326;43.882;2022-07-30T01:21:37;100741.72;;;16.52;98.05
70302;BME280;57706;56.326;43.882;2022-07-30T01:24:26;100742.56;;;16.53;98.39
70302;BME280;57706;56.326;43.882;2022-07-30T01:26:54;100741.34;;;16.56;98.74
70302;BME280;57706;56.326;43.882;2022-07-30T01:29:21;100740.94;;;16.52;98.61
70302;BME280;57706;56.326;43.882;2022-07-30T01:31:50;100747.22;;;16.51;98.17
70302;BME280;57706;56.326;43.882;2022-07-30T01:34:20;100743.78;;;16.50;98.38
70302;BME280;57706;56.326;43.882;2022-07-30T01:36:47;100750.84;;;16.43;97.10
70302;BME280;57706;56.326;43.882;2022-07-30T01:39:14;100752.75;;;16.49;97.80
70302;BME280;57706;56.326;43.882;2022-07-30T01:41:42;100749.69;;;16.52;98.42
70302;BME280;57706;56.326;43.882;2022-07-30T01:44:10;100755.00;;;16.52;98.46
70302;BME280;57706;56.326;43.882;2022-07-30T01:46:37;100762.97;;;16.52;98.42
70302;BME280;57706;56.326;43.882;2022-07-30T01:49:03;100758.91;;;16.57;98.74
70302;BME280;57706;56.326;43.882;2022-07-30T01:51:32;100753.97;;;16.54;98.05
70302;BME280;57706;56.326;43.882;2022-07-30T01:53:59;100757.69;;;16.59;98.78
70302;BME280;57706;56.326;43.882;2022-07-30T01:56:27;100754.38;;;16.50;98.13
70302;BME280;57706;56.326;43.882;2022-07-30T01:58:55;100759.28;;;16.54;97.87
70302;BME280;57706;56.326;43.882;2022-07-30T02:01:26;100760.19;;;16.68;99.43
70302;BME280;57706;56.326;43.882;2022-07-30T02:03:59;100758.53;;;16.60;97.27
70302;BME280;57706;56.326;43.882;2022-07-30T02:06:31;100769.13;;;16.60;96.75
70302;BME280;57706;56.326;43.882;2022-07-30T02:09:02;100759.41;;;16.67;97.14
70302;BME280;57706;56.326;43.882;2022-07-30T02:11:35;100757.19;;;16.71;96.46
70302;BME280;57706;56.326;43.882;2022-07-30T02:14:39;100766.81;;;16.78;96.52
70302;BME280;57706;56.326;43.882;2022-07-30T02:17:07;100772.97;;;16.86;97.54
70302;BME280;57706;56.326;43.882;2022-07-30T02:19:37;100766.44;;;16.82;96.72
70302;BME280;57706;56.326;43.882;2022-07-30T02:22:08;100765.00;;;16.86;96.48
70302;BME280;57706;56.326;43.882;2022-07-30T02:24:36;100763.66;;;16.97;97.57
70302;BME280;57706;56.326;43.882;2022-07-30T02:27:12;100757.13;;;16.99;97.02
70302;BME280;57706;56.326;43.882;2022-07-30T02:29:40;100764.47;;;16.97;95.88
70302;BME280;57706;56.326;43.882;2022-07-30T02:32:11;100760.59;;;17.00;96.04
70302;BME280;57706;56.326;43.882;2022-07-30T02:34:40;100754.72;;;17.04;95.65
70302;BME280;57706;56.326;43.882;2022-07-30T02:37:09;100762.53;;;17.13;97.59
70302;BME280;57706;56.326;43.882;2022-07-30T02:39:37;100758.47;;;17.17;97.27
70302;BME280;57706;56.326;43.882;2022-07-30T02:42:05;100763.38;;;17.20;97.14
70302;BME280;57706;56.326;43.882;2022-07-30T02:44:32;100763.00;;;17.23;96.06
70302;BME280;57706;56.326;43.882;2022-07-30T02:47:02;100757.28;;;17.26;93.65
70302;BME280;57706;56.326;43.882;2022-07-30T02:49:29;100771.00;;;17.30;92.05
70302;BME280;57706;56.326;43.882;2022-07-30T02:52:00;100769.22;;;17.44;94.39
70302;BME280;57706;56.326;43.882;2022-07-30T02:54:29;100769.81;;;17.46;94.90
70302;BME280;57706;56.326;43.882;2022-07-30T02:56:58;100764.09;;;17.42;93.71
70302;BME280;57706;56.326;43.882;2022-07-30T02:59:26;100769.81;;;17.46;94.59
70302;BME280;57706;56.326;43.882;2022-07-30T03:01:54;100777.00;;;17.52;94.91
70302;BME280;57706;56.326;43.882;2022-07-30T03:04:21;100757.78;;;17.50;92.55
70302;BME280;57706;56.326;43.882;2022-07-30T03:06:48;100761.00;;;17.39;87.25
70302;BME280;57706;56.326;43.882;2022-07-30T03:09:16;100769.25;;;17.57;94.09
70302;BME280;57706;56.326;43.882;2022-07-30T03:11:43;100769.22;;;17.51;91.00
70302;BME280;57706;56.326;43.882;2022-07-30T03:14:10;100767.81;;;17.61;90.93
70302;BME280;57706;56.326;43.882;2022-07-30T03:16:37;100762.75;;;17.67;91.76
70302;BME280;57706;56.326;43.882;2022-07-30T03:19:07;100768.66;;;17.69;88.70
70302;BME280;57706;56.326;43.882;2022-07-30T03:21:36;100763.59;;;17.74;90.91
70302;BME280;57706;56.326;43.882;2022-07-30T03:24:04;100768.47;;;17.77;92.46
70302;BME280;57706;56.326;43.882;2022-07-30T03:26:32;100765.81;;;17.70;89.27
70302;BME280;57706;56.326;43.882;2022-07-30T03:29:01;100774.22;;;17.74;88.35
70302;BME280;57706;56.326;43.882;2022-07-30T03:31:29;100777.47;;;17.76;86.59
70302;BME280;57706;56.326;43.882;2022-07-30T03:33:55;100777.09;;;17.86;90.11
70302;BME280;57706;56.326;43.882;2022-07-30T03:36:22;100774.22;;;17.74;86.26
70302;BME280;57706;56.326;43.882;2022-07-30T03:38:48;100777.47;;;17.83;88.23
70302;BME280;57706;56.326;43.882;2022-07-30T03:41:34;100769.31;;;17.84;87.28
70302;BME280;57706;56.326;43.882;2022-07-30T03:44:02;100774.66;;;17.98;90.24
70302;BME280;57706;56.326;43.882;2022-07-30T03:46:28;100778.81;;;18.07;91.52
70302;BME280;57706;56.326;43.882;2022-07-30T03:48:56;100780.63;;;18.13;89.26
70302;BME280;57706;56.326;43.882;2022-07-30T03:51:23;100779.00;;;18.26;89.78
70302;BME280;57706;56.326;43.882;2022-07-30T03:53:51;100774.31;;;18.21;84.20
70302;BME280;57706;56.326;43.882;2022-07-30T03:56:37;100778.63;;;18.36;87.83
70302;BME280;57706;56.326;43.882;2022-07-30T03:59:06;100779.63;;;18.41;86.47
70302;BME280;57706;56.326;43.882;2022-07-30T04:01:35;100775.53;;;18.52;88.37
70302;BME280;57706;56.326;43.882;2022-07-30T04:04:10;100783.13;;;18.49;86.87
70302;BME280;57706;56.326;43.882;2022-07-30T04:06:38;100774.91;;;18.57;86.15
70302;BME280;57706;56.326;43.882;2022-07-30T04:09:06;100783.72;;;18.64;87.46
70302;BME280;57706;56.326;43.882;2022-07-30T04:11:31;100780.44;;;18.69;82.18
70302;BME280;57706;56.326;43.882;2022-07-30T04:14:02;100782.66;;;18.72;79.55
70302;BME280;57706;56.326;43.882;2022-07-30T04:19:28;100789.56;;;19.14;85.50
70302;BME280;57706;56.326;43.882;2022-07-30T04:21:57;100782.78;;;19.24;86.92
70302;BME280;57706;56.326;43.882;2022-07-30T04:24:26;100790.13;;;19.29;83.18
70302;BME280;57706;56.326;43.882;2022-07-30T04:26:53;100786.00;;;19.33;85.70
70302;BME280;57706;56.326;43.882;2022-07-30T04:29:39;100791.31;;;19.40;84.44
70302;BME280;57706;56.326;43.882;2022-07-30T04:32:07;100797.00;;;19.50;83.64
70302;BME280;57706;56.326;43.882;2022-07-30T04:35:03;100795.97;;;19.51;81.65
70302;BME280;57706;56.326;43.882;2022-07-30T04:37:59;100797.50;;;19.34;84.20
70302;BME280;57706;56.326;43.882;2022-07-30T04:40:27;100803.63;;;19.41;82.16
70302;BME280;57706;56.326;43.882;2022-07-30T04:42:54;100804.47;;;19.35;77.71
70302;BME280;57706;56.326;43.882;2022-07-30T04:45:20;100809.75;;;19.42;85.20
70302;BME280;57706;56.326;43.882;2022-07-30T04:47:52;100807.91;;;19.42;86.92
70302;BME280;57706;56.326;43.882;2022-07-30T04:50:28;100809.13;;;19.46;81.47
70302;BME280;57706;56.326;43.882;2022-07-30T04:52:56;100812.38;;;19.55;82.73
70302;BME280;57706;56.326;43.882;2022-07-30T04:55:34;100810.09;;;19.59;78.44
70302;BME280;57706;56.326;43.882;2022-07-30T04:58:02;100812.06;;;19.77;85.77
70302;BME280;57706;56.326;43.882;2022-07-30T05:00:47;100813.22;;;19.88;82.77
70302;BME280;57706;56.326;43.882;2022-07-30T05:03:20;100818.38;;;19.83;81.65
70302;BME280;57706;56.326;43.882;2022-07-30T05:05:50;100812.03;;;19.84;78.86
70302;BME280;57706;56.326;43.882;2022-07-30T05:08:16;100818.50;;;20.01;83.30
70302;BME280;57706;56.326;43.882;2022-07-30T05:10:43;100812.31;;;20.07;81.79
70302;BME280;57706;56.326;43.882;2022-07-30T05:13:11;100801.91;;;20.25;79.28
70302;BME280;57706;56.326;43.882;2022-07-30T05:15:39;100810.16;;;20.23;77.89
70302;BME280;57706;56.326;43.882;2022-07-30T05:18:07;100805.06;;;20.47;83.70
70302;BME280;57706;56.326;43.882;2022-07-30T05:20:37;100805.66;;;20.49;83.14
70302;BME280;57706;56.326;43.882;2022-07-30T05:23:09;100802.16;;;20.48;84.11
70302;BME280;57706;56.326;43.882;2022-07-30T05:25:37;100795.56;;;20.51;76.15
70302;BME280;57706;56.326;43.882;2022-07-30T05:28:26;100803.19;;;20.73;81.27
70302;BME280;57706;56.326;43.882;2022-07-30T05:30:53;100802.88;;;20.81;83.66
70302;BME280;57706;56.326;43.882;2022-07-30T05:33:20;100802.84;;;20.62;72.47
70302;BME280;57706;56.326;43.882;2022-07-30T05:35:46;100805.50;;;20.88;83.04
70302;BME280;57706;56.326;43.882;2022-07-30T05:38:13;100811.69;;;21.07;78.10
70302;BME280;57706;56.326;43.882;2022-07-30T05:40:59;100811.97;;;21.36;81.50
70302;BME280;57706;56.326;43.882;2022-07-30T05:43:44;100811.28;;;21.59;74.59
70302;BME280;57706;56.326;43.882;2022-07-30T05:46:10;100807.38;;;22.05;74.74
70302;BME280;57706;56.326;43.882;2022-07-30T05:48:35;100806.94;;;22.20;65.16
70302;BME280;57706;56.326;43.882;2022-07-30T05:51:02;100818.31;;;22.81;76.86
70302;BME280;57706;56.326;43.882;2022-07-30T05:53:28;100816.00;;;23.26;72.71
70302;BME280;57706;56.326;43.882;2022-07-30T05:56:09;100812.91;;;24.04;71.92
70302;BME280;57706;56.326;43.882;2022-07-30T05:58:56;100811.81;;;28.36;64.79
70302;BME280;57706;56.326;43.882;2022-07-30T06:01:42;100800.31;;;32.99;48.64
70302;BME280;57706;56.326;43.882;2022-07-30T06:04:15;100796.84;;;33.21;49.65
70302;BME280;57706;56.326;43.882;2022-07-30T06:06:45;100798.53;;;30.41;60.57
70302;BME280;57706;56.326;43.882;2022-07-30T06:09:11;100801.22;;;28.60;53.78
70302;BME280;57706;56.326;43.882;2022-07-30T06:11:36;100794.44;;;27.38;51.58
70302;BME280;57706;56.326;43.882;2022-07-30T06:14:04;100797.38;;;26.24;61.92
70302;BME280;57706;56.326;43.882;2022-07-30T06:16:30;100802.25;;;25.67;62.58
70302;BME280;57706;56.326;43.882;2022-07-30T06:18:56;100807.63;;;25.23;69.06
70302;BME280;57706;56.326;43.882;2022-07-30T06:21:45;100803.97;;;25.07;74.03
70302;BME280;57706;56.326;43.882;2022-07-30T06:24:12;100802.22;;;24.95;74.77
70302;BME280;57706;56.326;43.882;2022-07-30T06:26:44;100808.13;;;25.42;71.84
70302;BME280;57706;56.326;43.882;2022-07-30T06:29:29;100801.00;;;27.79;63.67
70302;BME280;57706;56.326;43.882;2022-07-30T06:31:55;100801.94;;;32.72;53.75
70302;BME280;57706;56.326;43.882;2022-07-30T06:34:21;100795.63;;;36.27;37.57
70302;BME280;57706;56.326;43.882;2022-07-30T06:36:47;100787.31;;;38.18;35.35
70302;BME280;57706;56.326;43.882;2022-07-30T06:39:17;100776.81;;;41.24;36.95
70302;BME280;57706;56.326;43.882;2022-07-30T06:41:51;100775.09;;;43.24;32.54
70302;BME280;57706;56.326;43.882;2022-07-30T06:44:18;100784.59;;;44.13;30.31
70302;BME280;57706;56.326;43.882;2022-07-30T06:47:20;100758.16;;;45.05;23.17
70302;BME280;57706;56.326;43.882;2022-07-30T06:49:55;100765.16;;;46.80;26.17
70302;BME280;57706;56.326;43.882;2022-07-30T06:52:22;100763.03;;;48.05;26.34
70302;BME280;57706;56.326;43.882;2022-07-30T06:54:50;100754.81;;;49.22;26.74
70302;BME280;57706;56.326;43.882;2022-07-30T06:57:23;100746.22;;;49.37;24.81
70302;BME280;57706;56.326;43.882;2022-07-30T06:59:49;100748.47;;;49.90;23.02
70302;BME280;57706;56.326;43.882;2022-07-30T07:02:20;100741.22;;;49.24;18.50
70302;BME280;57706;56.326;43.882;2022-07-30T07:05:07;100741.84;;;50.24;23.65
70302;BME280;57706;56.326;43.882;2022-07-30T07:07:33;100743.00;;;50.06;23.60
70302;BME280;57706;56.326;43.882;2022-07-30T07:10:00;100738.34;;;46.12;24.32
70302;BME280;57706;56.326;43.882;2022-07-30T07:12:46;100748.84;;;43.90;29.17
70302;BME280;57706;56.326;43.882;2022-07-30T07:15:15;100744.41;;;47.98;24.42
70302;BME280;57706;56.326;43.882;2022-07-30T07:17:42;100740.81;;;45.59;26.87
70302;BME280;57706;56.326;43.882;2022-07-30T07:20:26;100738.25;;;46.63;22.13
70302;BME280;57706;56.326;43.882;2022-07-30T07:23:00;100740.91;;;49.90;14.81
70302;BME280;57706;56.326;43.882;2022-07-30T07:25:26;100737.91;;;46.46;21.92
70302;BME280;57706;56.326;43.882;2022-07-30T07:27:53;100736.41;;;49.28;17.72
70302;BME280;57706;56.326;43.882;2022-07-30T07:30:18;100735.28;;;50.71;18.16
70302;BME280;57706;56.326;43.882;2022-07-30T07:32:46;100738.84;;;45.48;24.86
70302;BME280;57706;56.326;43.882;2022-07-30T07:35:13;100732.97;;;47.47;25.50
70302;BME280;57706;56.326;43.882;2022-07-30T07:37:42;100731.94;;;50.60;20.83
70302;BME280;57706;56.326;43.882;2022-07-30T07:40:15;100732.78;;;51.89;20.47
70302;BME280;57706;56.326;43.882;2022-07-30T07:43:00;100727.75;;;45.52;27.99
70302;BME280;57706;56.326;43.882;2022-07-30T07:45:26;100735.84;;;49.61;21.63
70302;BME280;57706;56.326;43.882;2022-07-30T07:48:10;100731.47;;;47.31;23.20
70302;BME280;57706;56.326;43.882;2022-07-30T07:50:54;100718.19;;;45.86;25.29
70302;BME280;57706;56.326;43.882;2022-07-30T07:53:23;100728.38;;;46.43;21.68
70302;BME280;57706;56.326;43.882;2022-07-30T07:55:50;100729.22;;;50.56;23.50
70302;BME280;57706;56.326;43.882;2022-07-30T07:58:17;100724.78;;;48.47;16.17
70302;BME280;57706;56.326;43.882;2022-07-30T08:00:43;100708.56;;;51.83;21.37
70302;BME280;57706;56.326;43.882;2022-07-30T08:03:09;100720.56;;;45.29;29.25
70302;BME280;57706;56.326;43.882;2022-07-30T08:05:36;100719.81;;;45.61;27.83
70302;BME280;57706;56.326;43.882;2022-07-30T08:08:17;100713.25;;;41.83;32.50
70302;BME280;57706;56.326;43.882;2022-07-30T08:11:04;100715.56;;;39.39;33.57
70302;BME280;57706;56.326;43.882;2022-07-30T08:13:57;100715.63;;;46.57;20.50
70302;BME280;57706;56.326;43.882;2022-07-30T08:16:41;100716.94;;;46.30;23.69
70302;BME280;57706;56.326;43.882;2022-07-30T08:19:30;100716.81;;;40.58;33.43
70302;BME280;57706;56.326;43.882;2022-07-30T08:22:09;100715.69;;;37.15;38.11
70302;BME280;57706;56.326;43.882;2022-07-30T08:24:35;100717.00;;;35.40;44.32
70302;BME280;57706;56.326;43.882;2022-07-30T08:27:01;100717.81;;;39.49;34.88
70302;BME280;57706;56.326;43.882;2022-07-30T08:29:27;100709.81;;;46.08;22.63
70302;BME280;57706;56.326;43.882;2022-07-30T08:31:54;100718.81;;;50.20;23.24
70302;BME280;57706;56.326;43.882;2022-07-30T08:34:23;100715.91;;;49.63;23.07
70302;BME280;57706;56.326;43.882;2022-07-30T08:37:07;100707.00;;;49.68;12.20
70302;BME280;57706;56.326;43.882;2022-07-30T08:39:35;100701.59;;;50.41;19.80
70302;BME280;57706;56.326;43.882;2022-07-30T08:42:21;100717.13;;;52.74;19.01
70302;BME280;57706;56.326;43.882;2022-07-30T08:44:48;100713.91;;;55.54;17.21
70302;BME280;57706;56.326;43.882;2022-07-30T08:47:18;100700.03;;;47.38;17.53
70302;BME280;57706;56.326;43.882;2022-07-30T08:50:07;100709.72;;;43.92;28.06
70302;BME280;57706;56.326;43.882;2022-07-30T08:52:36;100706.06;;;49.54;20.93
70302;BME280;57706;56.326;43.882;2022-07-30T08:55:04;100706.22;;;52.37;17.21
70302;BME280;57706;56.326;43.882;2022-07-30T08:57:32;100704.88;;;54.31;14.62
70302;BME280;57706;56.326;43.882;2022-07-30T09:00:00;100704.03;;;55.78;11.47
70302;BME280;57706;56.326;43.882;2022-07-30T09:02:29;100695.59;;;55.31;13.04
70302;BME280;57706;56.326;43.882;2022-07-30T09:05:02;100699.16;;;55.03;14.59
70302;BME280;57706;56.326;43.882;2022-07-30T09:07:31;100694.59;;;56.43;11.03
70302;BME280;57706;56.326;43.882;2022-07-30T09:09:58;100686.94;;;55.81;10.72
70302;BME280;57706;56.326;43.882;2022-07-30T09:12:39;100697.09;;;57.38;10.31
70302;BME280;57706;56.326;43.882;2022-07-30T09:15:24;100699.63;;;57.51;11.09
70302;BME280;57706;56.326;43.882;2022-07-30T09:17:56;100694.69;;;58.42;12.96
70302;BME280;57706;56.326;43.882;2022-07-30T09:20:30;100692.72;;;57.37;15.84
70302;BME280;57706;56.326;43.882;2022-07-30T09:22:59;100673.31;;;48.87;21.50
70302;BME280;57706;56.326;43.882;2022-07-30T09:25:46;100685.25;;;43.03;23.53
70302;BME280;57706;56.326;43.882;2022-07-30T09:28:32;100684.53;;;48.80;18.99
70302;BME280;57706;56.326;43.882;2022-07-30T09:31:14;100689.31;;;52.27;10.31
70302;BME280;57706;56.326;43.882;2022-07-30T09:33:58;100682.88;;;54.07;12.33
70302;BME280;57706;56.326;43.882;2022-07-30T09:36:55;100670.69;;;48.72;19.78
70302;BME280;57706;56.326;43.882;2022-07-30T09:39:48;100682.91;;;42.71;23.91
70302;BME280;57706;56.326;43.882;2022-07-30T09:42:36;100672.75;;;47.22;12.84
70302;BME280;57706;56.326;43.882;2022-07-30T09:45:09;100677.88;;;51.00;14.52
70302;BME280;57706;56.326;43.882;2022-07-30T09:47:38;100684.91;;;52.26;13.00
70302;BME280;57706;56.326;43.882;2022-07-30T09:50:10;100674.25;;;54.33;10.39
70302;BME280;57706;56.326;43.882;2022-07-30T09:52:37;100671.19;;;56.51;10.09
70302;BME280;57706;56.326;43.882;2022-07-30T09:55:04;100664.47;;;50.94;11.37
70302;BME280;57706;56.326;43.882;2022-07-30T09:57:32;100678.88;;;51.72;10.57
70302;BME280;57706;56.326;43.882;2022-07-30T10:00:18;100674.44;;;54.80;9.15
70302;BME280;57706;56.326;43.882;2022-07-30T10:02:58;100672.88;;;56.58;8.43
70302;BME280;57706;56.326;43.882;2022-07-30T10:06:03;100656.59;;;58.01;6.57
70302;BME280;57706;56.326;43.882;2022-07-30T10:11:09;100676.16;;;58.82;7.00
70302;BME280;57706;56.326;43.882;2022-07-30T10:13:37;100669.47;;;55.21;8.27
70302;BME280;57706;56.326;43.882;2022-07-30T10:16:04;100658.28;;;48.77;12.32
70302;BME280;57706;56.326;43.882;2022-07-30T10:18:30;100664.84;;;44.24;15.77
70302;BME280;57706;56.326;43.882;2022-07-30T10:21:23;100665.75;;;40.80;18.31
70302;BME280;57706;56.326;43.882;2022-07-30T10:24:08;100669.38;;;42.59;16.90
70302;BME280;57706;56.326;43.882;2022-07-30T10:26:54;100669.38;;;47.87;12.49
70302;BME280;57706;56.326;43.882;2022-07-30T10:29:38;100678.53;;;52.39;10.02
70302;BME280;57706;56.326;43.882;2022-07-30T10:32:04;100665.06;;;54.92;8.67
70302;BME280;57706;56.326;43.882;2022-07-30T10:34:31;100683.53;;;56.20;7.92
70302;BME280;57706;56.326;43.882;2022-07-30T10:37:00;100682.13;;;56.83;7.96
70302;BME280;57706;56.326;43.882;2022-07-30T10:39:42;100684.13;;;57.61;7.22
70302;BME280;57706;56.326;43.882;2022-07-30T10:47:41;100670.31;;;48.08;13.03
70302;BME280;57706;56.326;43.882;2022-07-30T10:50:10;100666.28;;;45.72;14.45
70302;BME280;57706;56.326;43.882;2022-07-30T10:52:54;100673.72;;;51.08;10.94
70302;BME280;57706;56.326;43.882;2022-07-30T10:55:31;100670.97;;;51.21;10.71
70302;BME280;57706;56.326;43.882;2022-07-30T11:00:34;100677.00;;;51.53;10.49
70302;BME280;57706;56.326;43.882;2022-07-30T11:05:38;100673.22;;;43.26;15.56
70302;BME280;57706;56.326;43.882;2022-07-30T11:08:30;100676.25;;;39.67;18.77
70302;BME280;57706;56.326;43.882;2022-07-30T11:10:56;100682.47;;;42.35;16.87
70302;BME280;57706;56.326;43.882;2022-07-30T11:13:49;100677.59;;;41.71;17.08
70302;BME280;57706;56.326;43.882;2022-07-30T11:16:16;100686.91;;;38.95;19.38
70302;BME280;57706;56.326;43.882;2022-07-30T11:21:33;100683.47;;;46.59;13.53
70302;BME280;57706;56.326;43.882;2022-07-30T11:23:59;100681.69;;;46.09;13.71
70302;BME280;57706;56.326;43.882;2022-07-30T11:29:04;100678.16;;;45.00;14.42
70302;BME280;57706;56.326;43.882;2022-07-30T11:31:32;100684.41;;;41.10;17.86
70302;BME280;57706;56.326;43.882;2022-07-30T11:34:30;100687.28;;;44.11;15.45
70302;BME280;57706;56.326;43.882;2022-07-30T11:37:09;100692.44;;;42.13;16.90
70302;BME280;57706;56.326;43.882;2022-07-30T11:42:33;100690.22;;;46.58;14.23
70302;BME280;57706;56.326;43.882;2022-07-30T11:47:48;100681.19;;;50.24;11.04
70302;BME280;57706;56.326;43.882;2022-07-30T11:50:31;100680.44;;;48.88;11.94
70302;BME280;57706;56.326;43.882;2022-07-30T11:55:37;100677.94;;;50.26;10.62
70302;BME280;57706;56.326;43.882;2022-07-30T11:58:05;100682.84;;;46.94;13.28
70302;BME280;57706;56.326;43.882;2022-07-30T12:00:41;100675.50;;;48.41;12.16
70302;BME280;57706;56.326;43.882;2022-07-30T12:03:18;100668.22;;;51.04;10.63
70302;BME280;57706;56.326;43.882;2022-07-30T12:05:45;100673.56;;;47.19;13.15
70302;BME280;57706;56.326;43.882;2022-07-30T12:08:12;100668.63;;;44.93;14.48
70302;BME280;57706;56.326;43.882;2022-07-30T12:10:38;100663.28;;;48.62;12.41
70302;BME280;57706;56.326;43.882;2022-07-30T12:13:15;100671.72;;;51.55;10.08
70302;BME280;57706;56.326;43.882;2022-07-30T12:15:43;100668.19;;;46.97;13.17
70302;BME280;57706;56.326;43.882;2022-07-30T12:18:29;100662.00;;;50.97;10.56
70302;BME280;57706;56.326;43.882;2022-07-30T12:20:55;100669.09;;;52.33;9.47
70302;BME280;57706;56.326;43.882;2022-07-30T12:23:21;100663.81;;;53.12;8.73
70302;BME280;57706;56.326;43.882;2022-07-30T12:25:47;100658.78;;;53.30;8.75
70302;BME280;57706;56.326;43.882;2022-07-30T12:28:19;100666.78;;;50.96;10.10
70302;BME280;57706;56.326;43.882;2022-07-30T12:30:46;100658.59;;;50.35;10.54
70302;BME280;57706;56.326;43.882;2022-07-30T12:33:12;100663.44;;;51.94;9.25
70302;BME280;57706;56.326;43.882;2022-07-30T12:35:54;100661.41;;;52.63;9.22
70302;BME280;57706;56.326;43.882;2022-07-30T12:38:22;100662.63;;;53.23;8.43
70302;BME280;57706;56.326;43.882;2022-07-30T12:41:04;100655.53;;;52.96;9.40
70302;BME280;57706;56.326;43.882;2022-07-30T12:43:52;100656.00;;;45.29;13.79
70302;BME280;57706;56.326;43.882;2022-07-30T12:46:22;100661.06;;;41.24;17.17
70302;BME280;57706;56.326;43.882;2022-07-30T12:49:01;100667.13;;;43.51;15.26
70302;BME280;57706;56.326;43.882;2022-07-30T12:51:33;100665.81;;;48.21;12.38
70302;BME280;57706;56.326;43.882;2022-07-30T12:57:13;100672.81;;;49.64;10.90
70302;BME280;57706;56.326;43.882;2022-07-30T12:59:39;100664.56;;;44.58;14.00
70302;BME280;57706;56.326;43.882;2022-07-30T13:02:05;100674.94;;;44.83;14.08
70302;BME280;57706;56.326;43.882;2022-07-30T13:04:31;100667.91;;;46.73;12.47
70302;BME280;57706;56.326;43.882;2022-07-30T13:09:30;100652.28;;;51.01;10.04
70302;BME280;57706;56.326;43.882;2022-07-30T13:11:56;100657.34;;;51.69;9.76
70302;BME280;57706;56.326;43.882;2022-07-30T13:14:22;100655.13;;;51.47;9.89
70302;BME280;57706;56.326;43.882;2022-07-30T13:16:48;100658.78;;;52.03;9.03
70302;BME280;57706;56.326;43.882;2022-07-30T13:19:14;100662.56;;;51.67;9.65
70302;BME280;57706;56.326;43.882;2022-07-30T13:21:40;100658.06;;;51.57;9.17
70302;BME280;57706;56.326;43.882;2022-07-30T13:24:07;100659.94;;;45.20;12.77
70302;BME280;57706;56.326;43.882;2022-07-30T13:26:34;100655.41;;;43.69;13.55
70302;BME280;57706;56.326;43.882;2022-07-30T13:29:01;100661.84;;;46.03;12.40
70302;BME280;57706;56.326;43.882;2022-07-30T13:31:28;100653.69;;;46.64;11.98
70302;BME280;57706;56.326;43.882;2022-07-30T13:33:53;100672.97;;;46.85;11.94
70302;BME280;57706;56.326;43.882;2022-07-30T13:36:19;100661.19;;;45.41;12.35
70302;BME280;57706;56.326;43.882;2022-07-30T13:38:45;100657.91;;;46.01;11.59